Hondo, Texas
Current Conditions -  °F | °C
As of 6:51 PM on Friday 24 Oct 2014 (Local Time) from KHDO Reporting Station
Clear Clear  
Wind Chill: 77°   Ceiling: Unl
Heat Index: 79°   Visibility: 10mi
Dew Point: 57°   Wind: 6mph
Humidity: 50%   Direction: 180°S
Pressure: 30.1"   Gusts: NA
Location:  29.35°N, 99.14°W
Report Text: KHDO 242351Z AUTO 18005KT 10SM CLR 25/14 A3010 RMK AO2 SLP181 T02500139 10289 20250 55004
Loading
Personal Weather Stations






























Interactive Weather Map
Tropical Storm Tracking
New forecast layout! Learn more

10-Day Weather Forecast

Advertisements
Track Severe Weather on mobile